WXM80 ListenWXM80 Stop

You find our weather info also at:

UK Metoffice

WeatherCloud

Weather Underground

Northeastern Weather Network

AWEKAS

Citizen Weather Observer Program (CWOP)

HAMweather, WeatherForYou, PWS Weather


Weather Underground History page Text

Daily Summary for February 11, 2018 Units:  English    Metric   Both
« Previous Day
Next Day »
Daily Weekly Monthly Yearly Custom
  High: Low: Average:
Temperature: 57.4 °F 41.2 °F 48.2 °F
Dew Point: 57.1 °F 40.4 °F 47.5 °F
Humidity: 99 % 96 % 98 %
Wind Speed: 11.9 mph 0.0 mph 2.7 mph
Wind Gust: 19.6 mph - -
Wind:- - South
Pressure: 29.83 in 29.60 in -
Precipitation: 0.72 in    
Historical Graphs
 
 
Tabular Data for February 11, 2018
Time Temperature Dew Point Pressure Wind Wind Speed Wind Gust Humidity Rainfall Rate (Hourly)
00:03 43.8 °F 43.0 °F 29.78 in Calm     97 % 0.01 in
00:08 43.7 °F 42.9 °F 29.79 in Calm     97 % 0.01 in
00:13 43.4 °F 42.6 °F 29.78 in Calm     97 % 0.01 in
00:18 43.2 °F 42.1 °F 29.79 in Calm     96 % 0.01 in
00:24 43.1 °F 42.3 °F 29.78 in Calm     97 % 0.01 in
00:29 42.9 °F 42.1 °F 29.79 in Calm     97 % 0.00 in
00:34 42.8 °F 42.0 °F 29.78 in Calm     97 % 0.00 in
00:39 42.8 °F 42.0 °F 29.78 in Calm     97 % 0.00 in
00:44 42.7 °F 41.6 °F 29.78 in Calm     96 % 0.00 in
00:49 42.7 °F 41.6 °F 29.78 in Calm     96 % 0.00 in
00:54 42.7 °F 41.6 °F 29.78 in Calm   1.2 mph 96 % 0.01 in
00:59 42.7 °F 41.6 °F 29.78 in Calm     96 % 0.01 in
01:04 42.7 °F 41.6 °F 29.78 in Calm     96 % 0.01 in
01:09 42.9 °F 42.1 °F 29.78 in West 0.2 mph   97 % 0.01 in
01:14 43.1 °F 42.3 °F 29.78 in Calm     97 % 0.02 in
01:19 43.4 °F 42.6 °F 29.78 in West 0.3 mph 1.0 mph 97 % 0.02 in
01:24 43.6 °F 42.8 °F 29.79 in Calm     97 % 0.02 in
01:29 43.8 °F 43.0 °F 29.78 in Calm     97 % 0.02 in
01:34 43.8 °F 43.0 °F 29.78 in Calm     97 % 0.03 in
01:39 43.8 °F 43.0 °F 29.78 in Calm     97 % 0.03 in
01:44 43.8 °F 43.0 °F 29.78 in Calm     97 % 0.03 in
01:49 43.8 °F 43.0 °F 29.78 in Calm     97 % 0.04 in
01:54 43.7 °F 42.9 °F 29.78 in Calm     97 % 0.03 in
02:00 43.7 °F 42.9 °F 29.79 in Calm     97 % 0.03 in
02:05 43.8 °F 43.0 °F 29.80 in Calm     97 % 0.04 in
02:10 43.8 °F 43.0 °F 29.80 in Calm     97 % 0.04 in
02:15 43.8 °F 43.0 °F 29.80 in West 0.3 mph 2.3 mph 97 % 0.03 in
02:20 43.8 °F 43.0 °F 29.80 in Calm   1.2 mph 97 % 0.04 in
02:25 43.9 °F 43.1 °F 29.80 in Calm     97 % 0.04 in
02:30 44.0 °F 43.2 °F 29.80 in Calm   2.3 mph 97 % 0.04 in
02:35 44.1 °F 43.3 °F 29.80 in West 0.7 mph 2.3 mph 97 % 0.04 in
02:40 44.2 °F 43.4 °F 29.80 in Calm     97 % 0.04 in
02:45 44.2 °F 43.4 °F 29.79 in Calm     97 % 0.05 in
02:50 44.2 °F 43.4 °F 29.79 in Calm     97 % 0.04 in
02:55 44.3 °F 43.5 °F 29.79 in Calm     97 % 0.04 in
03:00 44.3 °F 43.5 °F 29.78 in Calm     97 % 0.05 in
03:05 44.3 °F 43.5 °F 29.79 in Calm     97 % 0.04 in
03:10 44.3 °F 43.5 °F 29.77 in West 0.2 mph 1.0 mph 97 % 0.05 in
03:15 44.3 °F 43.5 °F 29.78 in Calm     97 % 0.05 in
03:20 44.4 °F 43.6 °F 29.78 in Calm     97 % 0.04 in
03:25 44.4 °F 43.6 °F 29.78 in Calm     97 % 0.00 in
03:31 44.5 °F 43.7 °F 29.78 in West 0.2 mph 1.2 mph 97 % 0.05 in
03:36 44.5 °F 43.7 °F 29.78 in Calm     97 % 0.00 in
03:41 44.5 °F 43.7 °F 29.78 in West 0.1 mph 1.2 mph 97 % 0.05 in
03:46 44.5 °F 43.7 °F 29.79 in Calm     97 % 0.05 in
03:51 44.6 °F 43.8 °F 29.79 in West 0.8 mph 2.3 mph 97 % 0.05 in
03:56 44.6 °F 43.8 °F 29.79 in Calm     97 % 0.04 in
04:01 44.6 °F 43.8 °F 29.79 in Calm     97 % 0.05 in
04:06 44.7 °F 43.9 °F 29.78 in Calm     97 % 0.05 in
04:11 44.7 °F 43.9 °F 29.79 in West 1.8 mph 3.5 mph 97 % 0.04 in
04:16 44.8 °F 44.0 °F 29.78 in Calm     97 % 0.05 in
04:21 44.8 °F 44.0 °F 29.79 in Calm     97 % 0.05 in
04:26 44.9 °F 44.1 °F 29.78 in Calm     97 % 0.04 in
04:31 44.9 °F 44.1 °F 29.78 in Calm     97 % 0.05 in
04:36 44.9 °F 44.1 °F 29.79 in Calm     97 % 0.04 in
04:41 45.0 °F 44.2 °F 29.78 in Calm     97 % 0.04 in
04:46 45.0 °F 44.2 °F 29.78 in Calm     97 % 0.04 in
04:51 45.1 °F 44.3 °F 29.78 in Calm     97 % 0.04 in
04:56 45.1 °F 44.3 °F 29.79 in Calm     97 % 0.05 in
05:01 45.1 °F 44.3 °F 29.79 in Calm     97 % 0.04 in
05:06 45.1 °F 44.3 °F 29.79 in Calm     97 % 0.04 in
05:11 45.1 °F 44.3 °F 29.79 in Calm     97 % 0.04 in
05:16 45.1 °F 44.3 °F 29.79 in Calm     97 % 0.03 in
05:21 45.1 °F 44.3 °F 29.80 in Calm     97 % 0.04 in
05:27 45.1 °F 44.3 °F 29.81 in Calm     97 % 0.04 in
05:32 45.1 °F 44.3 °F 29.81 in Calm     97 % 0.03 in
05:37 45.2 °F 44.4 °F 29.81 in Calm     97 % 0.03 in
05:42 45.2 °F 44.4 °F 29.82 in Calm     97 % 0.03 in
05:47 45.3 °F 44.5 °F 29.81 in Calm     97 % 0.03 in
05:52 45.3 °F 44.5 °F 29.81 in Calm     97 % 0.03 in
05:57 45.3 °F 44.5 °F 29.81 in Calm     97 % 0.02 in
06:02 45.3 °F 44.5 °F 29.81 in Calm     97 % 0.02 in
06:07 45.3 °F 44.5 °F 29.81 in Calm     97 % 0.03 in
06:12 45.3 °F 44.5 °F 29.81 in Calm     97 % 0.03 in
06:17 45.3 °F 44.5 °F 29.81 in Calm     97 % 0.02 in
06:22 45.2 °F 44.4 °F 29.81 in Calm     97 % 0.02 in
06:27 45.2 °F 44.4 °F 29.80 in Calm   1.2 mph 97 % 0.02 in
06:32 45.2 °F 44.4 °F 29.79 in West 1.6 mph 2.3 mph 97 % 0.02 in
06:37 45.2 °F 44.4 °F 29.81 in Calm     97 % 0.03 in
06:42 45.2 °F 44.4 °F 29.82 in Calm     97 % 0.02 in
06:47 45.2 °F 44.4 °F 29.82 in Calm     97 % 0.02 in
06:52 45.2 °F 44.4 °F 29.82 in Calm     97 % 0.02 in
06:58 45.2 °F 44.4 °F 29.82 in Calm     97 % 0.02 in
07:03 45.2 °F 44.4 °F 29.83 in Calm     97 % 0.02 in
07:08 45.3 °F 44.5 °F 29.82 in Calm     97 % 0.02 in
07:13 45.4 °F 44.6 °F 29.83 in Calm     97 % 0.02 in
07:18 45.4 °F 44.6 °F 29.83 in Calm     97 % 0.02 in
07:23 45.4 °F 44.6 °F 29.83 in Calm     97 % 0.03 in
07:28 45.4 °F 44.6 °F 29.83 in Calm     97 % 0.03 in
07:33 45.4 °F 44.6 °F 29.81 in Calm   1.2 mph 97 % 0.03 in
07:38 45.4 °F 44.6 °F 29.81 in West 0.7 mph 3.5 mph 97 % 0.03 in
07:43 45.4 °F 44.6 °F 29.81 in NNW 2.1 mph 3.5 mph 97 % 0.03 in
07:48 45.5 °F 44.7 °F 29.81 in Calm     97 % 0.04 in
07:53 45.5 °F 44.7 °F 29.82 in Calm     97 % 0.04 in
07:58 45.6 °F 45.1 °F 29.81 in Calm     98 % 0.04 in
08:03 45.7 °F 45.2 °F 29.81 in Calm     98 % 0.03 in
08:08 45.7 °F 45.2 °F 29.80 in Calm   1.2 mph 98 % 0.03 in
08:13 45.7 °F 44.9 °F 29.81 in Calm     97 % 0.04 in
08:18 45.6 °F 44.8 °F 29.81 in NNW 0.4 mph 1.2 mph 97 % 0.04 in
08:24 45.4 °F 44.6 °F 29.81 in Calm   1.2 mph 97 % 0.03 in
08:29 45.1 °F 44.3 °F 29.82 in Calm     97 % 0.03 in
08:34 44.9 °F 44.1 °F 29.81 in Calm     97 % 0.03 in
08:39 44.7 °F 43.9 °F 29.82 in Calm     97 % 0.02 in
08:44 44.5 °F 43.7 °F 29.82 in Calm     97 % 0.02 in
08:49 44.4 °F 43.6 °F 29.82 in Calm     97 % 0.01 in
08:54 44.3 °F 43.5 °F 29.82 in Calm     97 % 0.02 in
08:59 44.2 °F 43.4 °F 29.81 in Calm     97 % 0.03 in
09:04 44.2 °F 43.4 °F 29.81 in Calm     97 % 0.04 in
09:09 44.2 °F 43.4 °F 29.81 in Calm     97 % 0.04 in
09:14 44.3 °F 43.5 °F 29.80 in NNW 0.2 mph 1.2 mph 97 % 0.03 in
09:19 44.4 °F 43.6 °F 29.81 in Calm   1.2 mph 97 % 0.03 in
09:24 44.5 °F 43.7 °F 29.81 in NNW 0.2 mph 1.2 mph 97 % 0.03 in
09:29 44.5 °F 43.7 °F 29.80 in Calm   1.2 mph 97 % 0.03 in
09:34 44.5 °F 43.7 °F 29.82 in Calm   2.3 mph 97 % 0.04 in
09:39 44.5 °F 43.7 °F 29.81 in Calm     97 % 0.06 in
09:44 44.5 °F 43.7 °F 29.81 in NNW 0.4 mph 2.3 mph 97 % 0.08 in
09:49 44.5 °F 43.7 °F 29.81 in Calm   3.5 mph 97 % 0.11 in
09:54 44.5 °F 43.7 °F 29.81 in NNW 1.4 mph 3.5 mph 97 % 0.12 in
10:00 44.4 °F 43.6 °F 29.81 in Calm     97 % 0.12 in
10:05 44.3 °F 43.5 °F 29.80 in NNW 1.2 mph 3.5 mph 97 % 0.12 in
10:10 44.2 °F 43.4 °F 29.80 in NNW 0.9 mph 2.0 mph 97 % 0.14 in
10:15 44.0 °F 43.2 °F 29.79 in NNW 1.3 mph 3.5 mph 97 % 0.15 in
10:20 43.8 °F 43.0 °F 29.80 in NNW 0.2 mph 2.3 mph 97 % 0.15 in
10:25 43.7 °F 42.9 °F 29.80 in NNW 2.2 mph 3.5 mph 97 % 0.16 in
10:30 43.8 °F 43.0 °F 29.79 in ENE 1.5 mph 4.0 mph 97 % 0.16 in
10:35 44.0 °F 43.2 °F 29.79 in East 4.6 mph 5.8 mph 97 % 0.15 in
10:40 44.2 °F 43.4 °F 29.78 in East 3.7 mph 5.8 mph 97 % 0.13 in
10:45 44.5 °F 43.7 °F 29.78 in East 2.5 mph 3.5 mph 97 % 0.10 in
10:50 44.6 °F 44.1 °F 29.78 in East 1.2 mph 2.3 mph 98 % 0.09 in
10:55 44.8 °F 44.3 °F 29.77 in East 4.3 mph 5.0 mph 98 % 0.07 in
11:00 44.9 °F 44.4 °F 29.77 in East 3.2 mph 5.8 mph 98 % 0.06 in
11:05 45.0 °F 44.5 °F 29.77 in East 4.4 mph 6.9 mph 98 % 0.04 in
11:10 45.2 °F 44.7 °F 29.76 in East 2.0 mph 5.8 mph 98 % 0.04 in
11:15 45.3 °F 44.8 °F 29.76 in East 0.5 mph 2.3 mph 98 % 0.03 in
11:20 45.5 °F 45.0 °F 29.76 in SSE 1.3 mph 3.5 mph 98 % 0.03 in
11:26 45.6 °F 45.1 °F 29.74 in East 3.3 mph 6.0 mph 98 % 0.02 in
11:31 45.9 °F 45.4 °F 29.74 in East 3.0 mph 7.0 mph 98 % 0.00 in
11:36 46.0 °F 45.5 °F 29.75 in Calm   2.0 mph 98 % 0.00 in
11:41 46.1 °F 45.6 °F 29.76 in Calm     98 % 0.00 in
11:46 46.2 °F 45.7 °F 29.75 in ENE 2.0 mph 3.0 mph 98 % 0.00 in
11:51 46.4 °F 45.9 °F 29.74 in NNE 3.5 mph 4.0 mph 98 % 0.02 in
11:56 46.4 °F 45.8 °F 29.72 in NNE 5.0 mph 6.0 mph 98 % 0.00 in
12:01 45.7 °F 45.2 °F 29.71 in NNE 4.9 mph 6.9 mph 98 % 0.02 in
12:06 44.9 °F 44.1 °F 29.72 in North 2.0 mph 7.0 mph 97 % 0.00 in
12:11 44.3 °F 43.5 °F 29.73 in Calm   4.0 mph 97 % 0.00 in
12:16 43.9 °F 43.1 °F 29.73 in Calm   3.0 mph 97 % 0.01 in
12:21 43.5 °F 42.7 °F 29.73 in Calm   1.0 mph 97 % 0.00 in
12:26 43.2 °F 42.4 °F 29.73 in NNE 0.3 mph 2.3 mph 97 % 0.02 in
12:31 42.9 °F 42.1 °F 29.72 in NE 1.0 mph 3.0 mph 97 % 0.00 in
12:36 42.7 °F 41.9 °F 29.73 in Calm   3.0 mph 97 % 0.00 in
12:41 42.5 °F 41.7 °F 29.73 in ENE 1.0 mph 5.0 mph 97 % 0.00 in
12:46 42.3 °F 41.5 °F 29.73 in ENE 2.0 mph 6.0 mph 97 % 0.00 in
12:51 42.2 °F 41.4 °F 29.72 in Calm   3.5 mph 97 % 0.01 in
12:56 42.2 °F 41.4 °F 29.72 in Calm   3.0 mph 97 % 0.00 in
13:01 42.3 °F 41.5 °F 29.70 in ENE 1.9 mph 3.5 mph 97 % 0.03 in
13:06 42.5 °F 41.7 °F 29.69 in East 2.7 mph 5.0 mph 97 % 0.03 in
13:11 42.8 °F 42.3 °F 29.69 in ENE 1.7 mph 3.5 mph 98 % 0.03 in
13:16 42.9 °F 42.4 °F 29.68 in NE 2.6 mph 3.5 mph 98 % 0.03 in
13:21 42.8 °F 42.3 °F 29.67 in ENE 1.7 mph 3.5 mph 98 % 0.03 in
13:26 42.7 °F 41.9 °F 29.68 in Calm     97 % 0.03 in
13:31 42.4 °F 41.6 °F 29.69 in NE 0.2 mph 1.2 mph 97 % 0.04 in
13:36 42.4 °F 41.6 °F 29.68 in NE 1.2 mph 3.5 mph 97 % 0.05 in
13:41 42.4 °F 41.6 °F 29.67 in NNE 2.6 mph 5.8 mph 97 % 0.06 in
13:46 42.3 °F 41.5 °F 29.66 in NNE 0.5 mph 3.0 mph 97 % 0.06 in
13:51 42.2 °F 41.4 °F 29.65 in NNE 1.8 mph 3.5 mph 97 % 0.07 in
13:56 41.9 °F 41.1 °F 29.65 in ENE 2.6 mph 4.6 mph 97 % 0.07 in
14:01 41.5 °F 40.7 °F 29.65 in ENE 0.9 mph 2.3 mph 97 % 0.06 in
14:06 41.3 °F 40.5 °F 29.65 in Calm   1.2 mph 97 % 0.07 in
14:12 41.2 °F 40.4 °F 29.65 in Calm     97 % 0.07 in
14:17 41.3 °F 40.5 °F 29.65 in Calm   1.2 mph 97 % 0.06 in
14:22 41.3 °F 40.5 °F 29.65 in SSE 0.5 mph 5.0 mph 97 % 0.07 in
14:27 41.9 °F 41.1 °F 29.64 in South 2.2 mph 5.8 mph 97 % 0.08 in
14:32 42.8 °F 42.3 °F 29.64 in SSW 4.1 mph 5.8 mph 98 % 0.07 in
14:37 44.9 °F 44.4 °F 29.65 in North 9.0 mph 12.7 mph 98 % 0.07 in
14:42 44.9 °F 44.4 °F 29.64 in South 1.2 mph 3.5 mph 98 % 0.06 in
14:47 44.8 °F 44.3 °F 29.64 in Calm   1.2 mph 98 % 0.06 in
14:52 44.9 °F 44.4 °F 29.65 in SSE 1.1 mph 2.3 mph 98 % 0.05 in
14:57 46.6 °F 46.1 °F 29.64 in South 5.3 mph 8.1 mph 98 % 0.04 in
15:02 47.9 °F 47.4 °F 29.62 in SW 2.6 mph 6.9 mph 98 % 0.04 in
15:07 48.9 °F 48.4 °F 29.62 in SSW 1.0 mph 4.6 mph 98 % 0.03 in
15:12 49.9 °F 49.6 °F 29.62 in SSW 3.5 mph 6.0 mph 99 % 0.03 in
15:17 51.2 °F 50.7 °F 29.63 in South 5.8 mph 9.0 mph 98 % 0.04 in
15:22 51.9 °F 51.6 °F 29.62 in South 8.4 mph 13.0 mph 99 % 0.03 in
15:27 52.3 °F 52.0 °F 29.61 in SSW 7.8 mph 11.5 mph 99 % 0.02 in
15:32 52.6 °F 52.3 °F 29.60 in South 5.5 mph 11.5 mph 99 % 0.02 in
15:37 52.8 °F 52.5 °F 29.61 in South 6.9 mph 11.5 mph 99 % 0.01 in
15:42 52.8 °F 52.5 °F 29.61 in SSW 6.8 mph 10.4 mph 99 % 0.01 in
15:47 53.1 °F 52.8 °F 29.61 in South 7.4 mph 10.4 mph 99 % 0.01 in
15:52 53.4 °F 53.1 °F 29.60 in SSW 7.0 mph 16.1 mph 99 % 0.01 in
15:58 53.8 °F 53.5 °F 29.60 in South 9.7 mph 12.7 mph 99 % 0.02 in
16:03 54.6 °F 54.3 °F 29.60 in South 3.6 mph 12.7 mph 99 % 0.02 in
16:08 54.8 °F 54.5 °F 29.60 in South 7.9 mph 11.5 mph 99 % 0.02 in
16:13 54.8 °F 54.5 °F 29.60 in SSW 5.0 mph 12.7 mph 99 % 0.02 in
16:18 54.6 °F 54.3 °F 29.60 in South 6.2 mph 11.5 mph 99 % 0.01 in
16:23 54.6 °F 54.3 °F 29.61 in SSW 6.1 mph 10.4 mph 99 % 0.01 in
16:28 54.5 °F 54.2 °F 29.60 in SSW 5.7 mph 9.2 mph 99 % 0.01 in
16:33 54.6 °F 54.3 °F 29.60 in SW 6.1 mph 11.5 mph 99 % 0.02 in
16:38 54.9 °F 54.6 °F 29.61 in SW 5.8 mph 16.0 mph 99 % 0.02 in
16:43 55.2 °F 54.6 °F 29.60 in SSW 9.1 mph 11.5 mph 98 % 0.02 in
16:48 55.3 °F 54.7 °F 29.60 in South 6.0 mph 12.7 mph 98 % 0.02 in
16:53 55.5 °F 55.2 °F 29.61 in SSW 6.3 mph 13.8 mph 99 % 0.02 in
16:59 55.5 °F 55.2 °F 29.61 in South 7.3 mph 11.5 mph 99 % 0.01 in
17:04 55.5 °F 55.2 °F 29.61 in SSW 6.2 mph 13.8 mph 99 % 0.01 in
17:09 55.6 °F 55.3 °F 29.60 in SSW 6.1 mph 10.4 mph 99 % 0.01 in
17:14 55.7 °F 55.4 °F 29.60 in South 7.8 mph 11.5 mph 99 % 0.01 in
17:19 55.6 °F 55.3 °F 29.60 in South 6.9 mph 11.5 mph 99 % 0.01 in
17:24 55.5 °F 55.2 °F 29.60 in South 2.6 mph 5.8 mph 99 % 0.01 in
17:29 55.5 °F 55.2 °F 29.60 in SSW 5.5 mph 8.1 mph 99 % 0.02 in
17:34 55.5 °F 55.2 °F 29.60 in SSW 3.8 mph 6.9 mph 99 % 0.01 in
17:39 55.5 °F 55.2 °F 29.60 in SSW 5.5 mph 11.5 mph 99 % 0.01 in
17:44 55.4 °F 55.1 °F 29.60 in SW 6.4 mph 11.5 mph 99 % 0.01 in
17:49 55.2 °F 54.6 °F 29.60 in SSW 6.3 mph 10.0 mph 98 % 0.01 in
17:54 55.1 °F 54.5 °F 29.60 in WSW 4.9 mph 11.5 mph 98 % 0.02 in
17:59 54.9 °F 54.3 °F 29.63 in WSW 5.5 mph 11.5 mph 98 % 0.03 in
18:04 54.8 °F 54.2 °F 29.62 in SSW 5.0 mph 11.5 mph 98 % 0.05 in
18:09 54.5 °F 53.9 °F 29.61 in SW 5.8 mph 9.0 mph 98 % 0.05 in
18:14 54.4 °F 53.8 °F 29.62 in SW 8.2 mph 13.8 mph 98 % 0.06 in
18:19 54.2 °F 53.6 °F 29.61 in SSW 6.9 mph 19.6 mph 98 % 0.06 in
18:25 53.9 °F 53.3 °F 29.62 in SSW 5.6 mph 13.8 mph 98 % 0.06 in
18:30 53.7 °F 53.1 °F 29.62 in South 11.9 mph 17.3 mph 98 % 0.05 in
18:35 53.6 °F 53.0 °F 29.62 in SSW 10.0 mph 16.1 mph 98 % 0.05 in
18:40 53.6 °F 53.0 °F 29.62 in South 9.8 mph 18.4 mph 98 % 0.05 in
18:45 53.6 °F 53.0 °F 29.62 in SW 6.9 mph 12.7 mph 98 % 0.05 in
18:50 53.7 °F 53.1 °F 29.62 in South 6.1 mph 11.0 mph 98 % 0.05 in
18:55 53.8 °F 53.2 °F 29.62 in SSW 4.9 mph 9.2 mph 98 % 0.05 in
19:00 54.0 °F 53.4 °F 29.62 in SSW 5.8 mph 8.1 mph 98 % 0.03 in
19:05 54.3 °F 53.7 °F 29.62 in SSW 6.1 mph 9.2 mph 98 % 0.02 in
19:10 54.5 °F 53.9 °F 29.62 in South 5.8 mph 11.0 mph 98 % 0.02 in
19:15 54.5 °F 53.9 °F 29.62 in SSW 6.1 mph 11.5 mph 98 % 0.01 in
19:20 54.3 °F 53.7 °F 29.62 in South 7.6 mph 13.8 mph 98 % 0.01 in
19:25 54.2 °F 53.6 °F 29.63 in SSW 5.6 mph 9.2 mph 98 % 0.01 in
19:30 54.2 °F 53.6 °F 29.62 in SE 7.0 mph 13.8 mph 98 % 0.01 in
19:35 54.3 °F 53.7 °F 29.63 in South 6.0 mph 9.2 mph 98 % 0.01 in
19:40 54.4 °F 53.8 °F 29.63 in South 4.7 mph 11.5 mph 98 % 0.01 in
19:45 54.4 °F 53.8 °F 29.63 in South 8.9 mph 11.5 mph 98 % 0.01 in
19:51 54.5 °F 53.9 °F 29.63 in SSW 7.7 mph 10.4 mph 98 % 0.01 in
19:56 54.5 °F 54.0 °F 29.63 in South 8.0 mph 15.0 mph 98 % 0.00 in
20:00 54.5 °F 53.9 °F 29.63 in South 8.9 mph 15.0 mph 98 % 0.00 in
20:06 54.5 °F 53.9 °F 29.63 in South 6.0 mph 16.0 mph 98 % 0.00 in
20:11 54.5 °F 53.9 °F 29.63 in South 6.0 mph 12.0 mph 98 % 0.00 in
20:16 54.6 °F 54.0 °F 29.63 in SSW 6.0 mph 13.0 mph 98 % 0.00 in
20:21 54.6 °F 54.1 °F 29.63 in SSW 6.0 mph 12.0 mph 98 % 0.00 in
20:26 54.7 °F 54.2 °F 29.63 in South 7.0 mph 14.0 mph 98 % 0.00 in
20:30 54.8 °F 54.2 °F 29.62 in SSE 6.4 mph 11.5 mph 98 % 0.00 in
20:36 54.8 °F 54.2 °F 29.63 in South 6.0 mph 12.0 mph 98 % 0.00 in
20:40 54.7 °F 54.1 °F 29.63 in South 5.7 mph 12.7 mph 98 % 0.00 in
20:46 54.6 °F 54.0 °F 29.63 in SSW 6.0 mph 13.0 mph 98 % 0.00 in
20:51 54.6 °F 54.0 °F 29.63 in SSW 6.0 mph 15.0 mph 98 % 0.00 in
20:56 54.7 °F 54.1 °F 29.63 in SSE 5.7 mph 8.1 mph 98 % 0.00 in
21:00 54.6 °F 54.0 °F 29.63 in South 3.9 mph 11.5 mph 98 % 0.00 in
21:06 54.6 °F 54.0 °F 29.63 in SSW 6.0 mph 12.0 mph 98 % 0.00 in
21:11 54.6 °F 54.0 °F 29.63 in SSW 6.0 mph 10.0 mph 98 % 0.00 in
21:15 54.6 °F 54.0 °F 29.63 in South 5.7 mph 8.1 mph 98 % 0.00 in
21:21 54.6 °F 54.0 °F 29.63 in South 5.0 mph 12.0 mph 98 % 0.00 in
21:26 54.7 °F 54.1 °F 29.63 in SSW 6.0 mph 12.0 mph 98 % 0.00 in
21:31 54.8 °F 54.2 °F 29.63 in SSW 6.0 mph 12.0 mph 98 % 0.00 in
21:36 54.8 °F 54.3 °F 29.64 in SSW 5.0 mph 12.0 mph 98 % 0.00 in
21:41 54.8 °F 54.2 °F 29.63 in SSW 5.0 mph 10.0 mph 98 % 0.00 in
21:46 54.7 °F 54.1 °F 29.63 in SSW 6.0 mph 12.0 mph 98 % 0.00 in
21:51 54.6 °F 54.0 °F 29.63 in SSW 6.0 mph 13.0 mph 98 % 0.00 in
21:56 54.7 °F 54.1 °F 29.62 in SSW 5.0 mph 12.0 mph 98 % 0.00 in
22:00 54.9 °F 54.3 °F 29.63 in South 4.9 mph 8.1 mph 98 % 0.00 in
22:06 55.1 °F 54.6 °F 29.63 in SSW 5.0 mph 8.0 mph 98 % 0.00 in
22:11 55.4 °F 54.8 °F 29.62 in SSW 7.0 mph 12.0 mph 98 % 0.00 in
22:16 55.6 °F 55.3 °F 29.63 in SSW 6.0 mph 15.0 mph 99 % 0.00 in
22:21 55.7 °F 55.4 °F 29.62 in SSW 3.0 mph 7.0 mph 99 % 0.00 in
22:26 55.9 °F 55.3 °F 29.62 in SSW 6.0 mph 12.0 mph 98 % 0.00 in
22:31 56.0 °F 55.4 °F 29.63 in South 6.0 mph 12.0 mph 98 % 0.00 in
22:35 56.1 °F 55.5 °F 29.63 in SSW 5.3 mph 10.4 mph 98 % 0.00 in
22:40 56.2 °F 55.9 °F 29.64 in SSW 5.0 mph 10.0 mph 99 % 0.00 in
22:46 56.2 °F 55.9 °F 29.63 in SSW 5.0 mph 9.0 mph 99 % 0.00 in
22:50 56.2 °F 55.6 °F 29.64 in SSW 3.0 mph 8.0 mph 98 % 0.00 in
22:55 56.2 °F 55.7 °F 29.63 in SSW 6.0 mph 8.0 mph 98 % 0.00 in
23:01 56.5 °F 55.9 °F 29.63 in South 7.6 mph 12.0 mph 98 % 0.00 in
23:06 56.8 °F 56.5 °F 29.64 in SSW 4.6 mph 15.0 mph 99 % 0.00 in
23:11 57.0 °F 56.4 °F 29.63 in SSW 3.8 mph 8.1 mph 98 % 0.00 in
23:16 57.2 °F 56.6 °F 29.63 in SSW 5.3 mph 9.2 mph 98 % 0.00 in
23:21 57.3 °F 57.0 °F 29.64 in South 4.2 mph 8.1 mph 99 % 0.00 in
23:26 57.4 °F 57.1 °F 29.63 in South 3.3 mph 5.8 mph 99 % 0.00 in
23:31 57.3 °F 57.0 °F 29.63 in SSW 5.2 mph 8.0 mph 99 % 0.00 in
23:36 57.3 °F 57.0 °F 29.63 in SSE 5.2 mph 6.9 mph 99 % 0.00 in
23:41 57.2 °F 56.6 °F 29.64 in SW 5.5 mph 9.2 mph 98 % 0.00 in
23:46 57.2 °F 56.6 °F 29.64 in SW 4.9 mph 8.1 mph 98 % 0.00 in
23:51 57.1 °F 56.5 °F 29.64 in SSW 4.0 mph 8.1 mph 98 % 0.00 in
23:56 56.9 °F 56.3 °F 29.65 in SSW 4.5 mph 11.5 mph 98 % 0.00 in
Crab Meadow Weather
Compliments of Weather Underground - 3 mb

Script developed by  Jim McMurry - jmcmurry@mwt.net Adapted for the template by  Wim van der Kuil - Leuven-Template.eu

Astronomy: One year on Pluto is equal to 248 Earth years.